Oakes, North Dakota
Current Conditions -  °F | °C
As of 7:15 PM on Sunday 21 Dec 2014 (Local Time) from KGWR Reporting Station
Overcast Overcast  
Wind Chill: 25°   Ceiling: 500
Heat Index: 34°   Visibility: 10mi
Dew Point: 34°   Wind: 13mph
Humidity: 100%   Direction: 140°SE
Pressure: 29.54"   Gusts: NA
Location:  46.14°N, 98.09°W
Report Text: KGWR 220115Z AUTO 14011KT 10SM OVC005 01/01 A2954 RMK A01 P000
Loading
Personal Weather Stations






























Interactive Weather Map New forecast layout! Learn more

10-Day Weather Forecast

Advertisements
Track Severe Weather on mobile